Cotes De Bretagne — FW3973 — position and weather

sailwx.info

Track history (hours):
 
Tides and Currents Weather Stations Pressure Air Temp Water Temp Dewpoint Dewpoint Depression Visibility Wind Speed Wind Dir Waves Ship Positions

Cotes De Bretagne

Last reported at 2014-Oct-31 08:19 UTC. Time now 2014-Nov-01 01:19 UTC.
Position N 48°43' W 003°58'.

Length 75 m; draft 4.2 m.

Type: Dredging. MMSI: 227003850.

Date/timePositionNaut miles runAvg speedWind from/ knotsBaromVisibWave heightAir tempDewpointWater temp
2014-Oct-31 08:19N 48°43' W 003°58'24 8.1
2014-Oct-31 05:18N 48°53' W 003°24'23 4.8
2014-Oct-31 00:27N 48°49' W 002°49'29 1.0
2014-Oct-29 18:33N 48°40' W 002°07'2 0.8
2014-Oct-29 16:28N 48°40' W 002°09'16 8.1
2014-Oct-29 14:28N 48°45' W 002°33'11 8.0
2014-Oct-29 13:09N 48°48' W 002°48'5 7.4
2014-Oct-29 12:25N 48°49' W 002°56'0 0.1
2014-Oct-29 11:33N 48°49' W 002°56'0 0.0
2014-Oct-29 10:12N 48°49' W 002°56'5 8.0
2014-Oct-29 09:33N 48°54' W 002°58'7810.8
2014-Oct-29 02:20N 48°30' W 004°50'911.0
2014-Oct-29 01:34N 48°22' W 004°49'1110.6
2014-Oct-29 00:33N 48°12' W 004°45'10 9.7
2014-Oct-28 23:34N 48°02' W 004°46'56 9.3
2014-Oct-28 17:33N 47°40' W 003°29'7 6.7
2014-Oct-28 16:34N 47°44' W 003°21'0 0.0
2014-Oct-28 15:34N 47°44' W 003°21'0 0.0
2014-Oct-28 14:34N 47°44' W 003°21'0 0.0
2014-Oct-28 13:34N 47°44' W 003°21'0 0.0
2014-Oct-28 12:34N 47°44' W 003°21'0 0.0
2014-Oct-28 11:34N 47°44' W 003°21'0 0.0
2014-Oct-28 10:34N 47°44' W 003°21'0 0.0
2014-Oct-28 09:31N 47°44' W 003°21'0 0.0
2014-Oct-28 08:31N 47°44' W 003°21'0 0.0
2014-Oct-28 07:31N 47°44' W 003°21'0 0.0
2014-Oct-28 06:31N 47°44' W 003°21'0 0.0
2014-Oct-28 05:31N 47°44' W 003°21'0 0.0
2014-Oct-28 04:31N 47°44' W 003°21'0 0.0
2014-Oct-28 03:31N 47°44' W 003°21'0 0.0
2014-Oct-28 02:31N 47°44' W 003°21'0 0.0
2014-Oct-28 01:31N 47°44' W 003°21'0 0.0
2014-Oct-28 00:28N 47°44' W 003°21'0 0.0
2014-Oct-27 23:31N 47°44' W 003°21'0 0.0
2014-Oct-27 22:31N 47°44' W 003°21'0 0.0
2014-Oct-27 21:31N 47°44' W 003°21'0 0.0
2014-Oct-27 20:31N 47°44' W 003°21'0 0.0
2014-Oct-27 19:31N 47°44' W 003°21'0 0.0
2014-Oct-27 18:31N 47°44' W 003°21'0 0.0
2014-Oct-27 17:31N 47°44' W 003°21'0 0.0
2014-Oct-27 16:31N 47°44' W 003°21'0 0.0
2014-Oct-27 15:31N 47°44' W 003°21'0 0.0
2014-Oct-27 14:31N 47°44' W 003°21'0 0.0
2014-Oct-27 13:31N 47°44' W 003°21'0 0.0
2014-Oct-27 12:31N 47°44' W 003°21'0 0.0
2014-Oct-27 11:31N 47°44' W 003°21'0 0.0
2014-Oct-27 10:31N 47°44' W 003°21'0 0.0
2014-Oct-27 09:31N 47°44' W 003°21'0 0.0
2014-Oct-27 08:31N 47°44' W 003°21'0 0.0
2014-Oct-27 07:31N 47°44' W 003°21'0 0.0
2014-Oct-27 06:31N 47°44' W 003°21'0 0.0
2014-Oct-27 05:31N 47°44' W 003°21'0 0.0
2014-Oct-27 04:31N 47°44' W 003°21'0 0.0
2014-Oct-27 03:31N 47°44' W 003°21'0 0.0
2014-Oct-27 02:31N 47°44' W 003°21'0 0.0
2014-Oct-27 01:31N 47°44' W 003°21'0 0.0
2014-Oct-27 00:31N 47°44' W 003°21'0 0.0
2014-Oct-26 23:31N 47°44' W 003°21'0 0.0
2014-Oct-26 22:31N 47°44' W 003°21'0 0.0
2014-Oct-26 21:31N 47°44' W 003°21'0 0.0
2014-Oct-26 20:31N 47°44' W 003°21'0 0.0
2014-Oct-26 19:31N 47°44' W 003°21'0 0.0
2014-Oct-26 18:31N 47°44' W 003°21'0 0.0
2014-Oct-26 17:31N 47°44' W 003°21'0 0.0
2014-Oct-26 16:31N 47°44' W 003°21'0 0.0
2014-Oct-26 15:31N 47°44' W 003°21'0 0.0
2014-Oct-26 14:31N 47°44' W 003°21'0 0.0
2014-Oct-26 13:31N 47°44' W 003°21'0 0.0
2014-Oct-26 12:31N 47°44' W 003°21'0 0.0
2014-Oct-26 11:31N 47°44' W 003°21'0 0.0
2014-Oct-26 10:31N 47°44' W 003°21'0 0.0
2014-Oct-26 09:29N 47°44' W 003°21'0 0.0
2014-Oct-26 08:32N 47°44' W 003°21'0 0.0
2014-Oct-26 07:32N 47°44' W 003°21'1 1.5
2014-Oct-26 06:33N 47°45' W 003°19'0 0.0
2014-Oct-26 05:33N 47°45' W 003°19'0 0.0
2014-Oct-26 04:33N 47°45' W 003°19'0 0.3
2014-Oct-26 03:33N 47°45' W 003°20'6 5.6
2014-Oct-26 02:33N 47°40' W 003°24'0 0.0
2014-Oct-26 01:33N 47°40' W 003°24'0 0.0
2014-Oct-26 00:34N 47°40' W 003°24'0 0.0
2014-Oct-25 23:33N 47°40' W 003°24'0 0.0
2014-Oct-25 22:33N 47°40' W 003°24'0 0.0
2014-Oct-25 21:33N 47°40' W 003°24'3 3.3
2014-Oct-25 20:33N 47°38' W 003°21'9 8.9
2014-Oct-25 19:33N 47°30' W 003°14'68 8.5
2014-Oct-25 11:33N 46°39' W 002°07'9 8.7
2014-Oct-25 10:33N 46°33' W 001°59'9 8.9
2014-Oct-25 09:33N 46°27' W 001°50'5 5.4
2014-Oct-25 08:33N 46°22' W 001°45'0 0.3
2014-Oct-25 07:33N 46°22' W 001°44'0 0.0
2014-Oct-25 06:33N 46°22' W 001°44'6 6.1
2014-Oct-25 05:33N 46°25' W 001°52'1110.9
2014-Oct-25 04:33N 46°33' W 002°03'7710.6
2014-Oct-24 21:16N 47°28' W 003°22'810.2
2014-Oct-24 20:29N 47°34' W 003°31'2010.4
2014-Oct-24 18:33N 47°46' W 003°55'1010.0
2014-Oct-24 17:33N 47°52' W 004°07'18 0.8
2014-Oct-23 18:33N 47°41' W 003°45'1110.8
2014-Oct-23 17:33N 47°47' W 003°59'9 9.4
2014-Oct-23 16:33N 47°54' W 004°08'5 4.7
2014-Oct-23 15:33N 47°58' W 004°06'34 5.6
2014-Oct-23 09:30N 47°34' W 003°31'1 0.1
2014-Oct-22 18:33N 47°35' W 003°33'1110.7
2014-Oct-22 17:33N 47°41' W 003°45'20 9.9
2014-Oct-22 15:33N 47°54' W 004°08'5 0.2
2014-Oct-21 19:33N 47°58' W 004°06'  
Track history (hours):
 
Tides and Currents Weather Stations Pressure Air Temp Water Temp Dewpoint Dewpoint Depression Visibility Wind Speed Wind Dir Waves Ship Positions

Cotes De Bretagne

Last reported at 2014-Oct-31 08:19 UTC. Time now 2014-Nov-01 01:19 UTC.
Position N 48°43' W 003°58'.

Length 75 m; draft 4.2 m.

Type: Dredging. MMSI: 227003850.

Date/timePositionNaut miles runAvg speedWind from/ knotsBaromVisibWave heightAir tempDewpointWater temp
2014-Oct-31 08:19N 48°43' W 003°58'24 8.1
2014-Oct-31 05:18N 48°53' W 003°24'23 4.8
2014-Oct-31 00:27N 48°49' W 002°49'29 1.0
2014-Oct-29 18:33N 48°40' W 002°07'2 0.8
2014-Oct-29 16:28N 48°40' W 002°09'16 8.1
2014-Oct-29 14:28N 48°45' W 002°33'11 8.0
2014-Oct-29 13:09N 48°48' W 002°48'5 7.4
2014-Oct-29 12:25N 48°49' W 002°56'0 0.1
2014-Oct-29 11:33N 48°49' W 002°56'0 0.0
2014-Oct-29 10:12N 48°49' W 002°56'5 8.0
2014-Oct-29 09:33N 48°54' W 002°58'7810.8
2014-Oct-29 02:20N 48°30' W 004°50'911.0
2014-Oct-29 01:34N 48°22' W 004°49'1110.6
2014-Oct-29 00:33N 48°12' W 004°45'10 9.7
2014-Oct-28 23:34N 48°02' W 004°46'56 9.3
2014-Oct-28 17:33N 47°40' W 003°29'7 6.7
2014-Oct-28 16:34N 47°44' W 003°21'0 0.0
2014-Oct-28 15:34N 47°44' W 003°21'0 0.0
2014-Oct-28 14:34N 47°44' W 003°21'0 0.0
2014-Oct-28 13:34N 47°44' W 003°21'0 0.0
2014-Oct-28 12:34N 47°44' W 003°21'0 0.0
2014-Oct-28 11:34N 47°44' W 003°21'0 0.0
2014-Oct-28 10:34N 47°44' W 003°21'0 0.0
2014-Oct-28 09:31N 47°44' W 003°21'0 0.0
2014-Oct-28 08:31N 47°44' W 003°21'0 0.0
2014-Oct-28 07:31N 47°44' W 003°21'0 0.0
2014-Oct-28 06:31N 47°44' W 003°21'0 0.0
2014-Oct-28 05:31N 47°44' W 003°21'0 0.0
2014-Oct-28 04:31N 47°44' W 003°21'0 0.0
2014-Oct-28 03:31N 47°44' W 003°21'0 0.0
2014-Oct-28 02:31N 47°44' W 003°21'0 0.0
2014-Oct-28 01:31N 47°44' W 003°21'0 0.0
2014-Oct-28 00:28N 47°44' W 003°21'0 0.0
2014-Oct-27 23:31N 47°44' W 003°21'0 0.0
2014-Oct-27 22:31N 47°44' W 003°21'0 0.0
2014-Oct-27 21:31N 47°44' W 003°21'0 0.0
2014-Oct-27 20:31N 47°44' W 003°21'0 0.0
2014-Oct-27 19:31N 47°44' W 003°21'0 0.0
2014-Oct-27 18:31N 47°44' W 003°21'0 0.0
2014-Oct-27 17:31N 47°44' W 003°21'0 0.0
2014-Oct-27 16:31N 47°44' W 003°21'0 0.0
2014-Oct-27 15:31N 47°44' W 003°21'0 0.0
2014-Oct-27 14:31N 47°44' W 003°21'0 0.0
2014-Oct-27 13:31N 47°44' W 003°21'0 0.0
2014-Oct-27 12:31N 47°44' W 003°21'0 0.0
2014-Oct-27 11:31N 47°44' W 003°21'0 0.0
2014-Oct-27 10:31N 47°44' W 003°21'0 0.0
2014-Oct-27 09:31N 47°44' W 003°21'0 0.0
2014-Oct-27 08:31N 47°44' W 003°21'0 0.0
2014-Oct-27 07:31N 47°44' W 003°21'0 0.0
2014-Oct-27 06:31N 47°44' W 003°21'0 0.0
2014-Oct-27 05:31N 47°44' W 003°21'0 0.0
2014-Oct-27 04:31N 47°44' W 003°21'0 0.0
2014-Oct-27 03:31N 47°44' W 003°21'0 0.0
2014-Oct-27 02:31N 47°44' W 003°21'0 0.0
2014-Oct-27 01:31N 47°44' W 003°21'0 0.0
2014-Oct-27 00:31N 47°44' W 003°21'0 0.0
2014-Oct-26 23:31N 47°44' W 003°21'0 0.0
2014-Oct-26 22:31N 47°44' W 003°21'0 0.0
2014-Oct-26 21:31N 47°44' W 003°21'0 0.0
2014-Oct-26 20:31N 47°44' W 003°21'0 0.0
2014-Oct-26 19:31N 47°44' W 003°21'0 0.0
2014-Oct-26 18:31N 47°44' W 003°21'0 0.0
2014-Oct-26 17:31N 47°44' W 003°21'0 0.0
2014-Oct-26 16:31N 47°44' W 003°21'0 0.0
2014-Oct-26 15:31N 47°44' W 003°21'0 0.0
2014-Oct-26 14:31N 47°44' W 003°21'0 0.0
2014-Oct-26 13:31N 47°44' W 003°21'0 0.0
2014-Oct-26 12:31N 47°44' W 003°21'0 0.0
2014-Oct-26 11:31N 47°44' W 003°21'0 0.0
2014-Oct-26 10:31N 47°44' W 003°21'0 0.0
2014-Oct-26 09:29N 47°44' W 003°21'0 0.0
2014-Oct-26 08:32N 47°44' W 003°21'0 0.0
2014-Oct-26 07:32N 47°44' W 003°21'1 1.5
2014-Oct-26 06:33N 47°45' W 003°19'0 0.0
2014-Oct-26 05:33N 47°45' W 003°19'0 0.0
2014-Oct-26 04:33N 47°45' W 003°19'0 0.3
2014-Oct-26 03:33N 47°45' W 003°20'6 5.6
2014-Oct-26 02:33N 47°40' W 003°24'0 0.0
2014-Oct-26 01:33N 47°40' W 003°24'0 0.0
2014-Oct-26 00:34N 47°40' W 003°24'0 0.0
2014-Oct-25 23:33N 47°40' W 003°24'0 0.0
2014-Oct-25 22:33N 47°40' W 003°24'0 0.0
2014-Oct-25 21:33N 47°40' W 003°24'3 3.3
2014-Oct-25 20:33N 47°38' W 003°21'9 8.9
2014-Oct-25 19:33N 47°30' W 003°14'68 8.5
2014-Oct-25 11:33N 46°39' W 002°07'9 8.7
2014-Oct-25 10:33N 46°33' W 001°59'9 8.9
2014-Oct-25 09:33N 46°27' W 001°50'5 5.4
2014-Oct-25 08:33N 46°22' W 001°45'0 0.3
2014-Oct-25 07:33N 46°22' W 001°44'0 0.0
2014-Oct-25 06:33N 46°22' W 001°44'6 6.1
2014-Oct-25 05:33N 46°25' W 001°52'1110.9
2014-Oct-25 04:33N 46°33' W 002°03'7710.6
2014-Oct-24 21:16N 47°28' W 003°22'810.2
2014-Oct-24 20:29N 47°34' W 003°31'2010.4
2014-Oct-24 18:33N 47°46' W 003°55'1010.0
2014-Oct-24 17:33N 47°52' W 004°07'18 0.8
2014-Oct-23 18:33N 47°41' W 003°45'1110.8
2014-Oct-23 17:33N 47°47' W 003°59'9 9.4
2014-Oct-23 16:33N 47°54' W 004°08'5 4.7
2014-Oct-23 15:33N 47°58' W 004°06'34 5.6
2014-Oct-23 09:30N 47°34' W 003°31'1 0.1
2014-Oct-22 18:33N 47°35' W 003°33'1110.7
2014-Oct-22 17:33N 47°41' W 003°45'20 9.9
2014-Oct-22 15:33N 47°54' W 004°08'5 0.2
2014-Oct-21 19:33N 47°58' W 004°06'  

Dump ship's entire track history